createdAt,value
2019-04-22T00:00:57.686Z,54.27
2019-04-22T00:03:39.004Z,53.74
2019-04-22T00:10:13.388Z,53.22
2019-04-22T00:12:53.117Z,53.48
2019-04-22T00:15:27.369Z,54.48
2019-04-22T00:18:14.444Z,54.86
2019-04-22T00:21:04.823Z,55.40
2019-04-22T00:23:43.398Z,56.19
2019-04-22T00:35:06.084Z,56.83
2019-04-22T00:38:03.793Z,56.82
2019-04-22T00:41:08.203Z,56.74
2019-04-22T00:43:37.520Z,56.50
2019-04-22T00:46:14.336Z,56.39
2019-04-22T00:49:33.153Z,56.14
2019-04-22T00:51:22.532Z,56.11
2019-04-22T00:54:13.672Z,56.31
2019-04-22T00:57:12.320Z,56.20
2019-04-22T00:59:33.008Z,56.59
2019-04-22T01:02:13.157Z,56.94
2019-04-22T01:05:00.744Z,57.34
2019-04-22T01:08:01.165Z,58.02
2019-04-22T01:10:39.005Z,58.21
2019-04-22T01:13:04.898Z,58.08
2019-04-22T01:18:37.429Z,57.84
2019-04-22T01:21:29.872Z,57.88
2019-04-22T01:24:22.125Z,57.98
2019-04-22T01:26:49.011Z,58.48
2019-04-22T01:32:43.032Z,58.88
2019-04-22T01:39:07.071Z,59.19
2019-04-22T01:41:42.516Z,59.01
2019-04-22T01:44:35.760Z,59.28
2019-04-22T01:50:37.060Z,60.39
2019-04-22T01:53:19.351Z,60.84
2019-04-22T01:56:28.837Z,60.62
2019-04-22T01:58:59.420Z,60.54
2019-04-22T02:01:55.108Z,60.51
2019-04-22T02:04:38.601Z,60.72
2019-04-22T02:07:16.734Z,60.56
2019-04-22T02:09:56.039Z,60.43
2019-04-22T02:12:43.466Z,60.38
2019-04-22T02:15:23.511Z,59.95
2019-04-22T02:17:54.874Z,59.68
2019-04-22T02:20:35.918Z,59.46
2019-04-22T02:26:27.272Z,58.90
2019-04-22T02:28:55.085Z,59.21
2019-04-22T02:31:51.119Z,59.31
2019-04-22T02:41:16.073Z,59.64
2019-04-22T02:47:07.869Z,60.07
2019-04-22T02:52:14.962Z,59.84
2019-04-22T02:57:47.409Z,59.92
2019-04-22T03:04:01.624Z,60.67
2019-04-22T03:09:07.269Z,61.13
2019-04-22T03:14:22.685Z,62.30
2019-04-22T03:19:57.585Z,61.84
2019-04-22T03:22:34.551Z,61.01
2019-04-22T03:28:10.245Z,60.31
2019-04-22T03:30:47.385Z,60.01
2019-04-22T03:40:07.321Z,59.80
2019-04-22T03:54:36.889Z,62.36
2019-04-22T03:57:22.051Z,61.80
2019-04-22T03:59:54.082Z,61.79
2019-04-22T04:02:21.614Z,61.26
2019-04-22T04:04:52.397Z,61.41
2019-04-22T04:07:42.598Z,61.71
2019-04-22T04:10:30.097Z,62.20
2019-04-22T04:13:03.347Z,61.87
2019-04-22T04:15:53.583Z,61.50
2019-04-22T04:18:22.245Z,61.36
2019-04-22T04:26:37.378Z,61.42
2019-04-22T04:40:11.660Z,62.09
2019-04-22T04:48:01.044Z,62.29
2019-04-22T04:51:12.159Z,61.72
2019-04-22T04:53:41.407Z,61.23
2019-04-22T04:59:16.952Z,59.46
2019-04-22T05:01:41.577Z,59.72
2019-04-22T05:04:41.363Z,59.50
2019-04-22T05:07:27.086Z,59.09
2019-04-22T05:09:46.254Z,58.83
2019-04-22T05:18:06.199Z,57.94
2019-04-22T05:21:02.925Z,57.30
2019-04-22T05:23:37.230Z,56.23
2019-04-22T05:26:26.082Z,55.75
2019-04-22T05:29:17.038Z,55.41
2019-04-22T05:31:52.176Z,54.78
2019-04-22T05:37:50.645Z,55.51
2019-04-22T05:40:30.728Z,54.89
2019-04-22T05:43:00.368Z,54.81
2019-04-22T05:45:57.885Z,54.44
2019-04-22T05:48:46.671Z,53.86
2019-04-22T05:57:57.685Z,53.15
2019-04-22T06:06:37.132Z,52.74
2019-04-22T06:09:24.879Z,52.95
2019-04-22T06:12:28.294Z,53.12
2019-04-22T06:15:22.327Z,52.57
2019-04-22T06:24:08.282Z,50.61
2019-04-22T06:27:08.093Z,49.16
2019-04-22T06:29:43.134Z,49.17
2019-04-22T06:32:42.112Z,47.94
2019-04-22T06:39:19.062Z,46.23
2019-04-22T06:42:00.767Z,44.29
2019-04-22T06:47:00.608Z,44.81
2019-04-22T06:49:49.486Z,45.07
2019-04-22T06:52:49.114Z,44.83
2019-04-22T06:55:05.253Z,45.37
2019-04-22T06:57:41.707Z,45.62
2019-04-22T07:00:24.437Z,44.75
2019-04-22T07:03:33.395Z,44.73
2019-04-22T07:05:46.330Z,44.69
2019-04-22T07:09:06.668Z,43.74
2019-04-22T07:13:55.299Z,42.15
2019-04-22T07:19:58.399Z,41.17
2019-04-22T07:22:43.317Z,41.10
2019-04-22T07:24:58.905Z,40.14
2019-04-22T07:27:53.833Z,40.46
2019-04-22T07:30:33.610Z,39.44
2019-04-22T07:39:05.723Z,37.49
2019-04-22T07:41:58.605Z,37.22
2019-04-22T07:44:45.179Z,36.88
2019-04-22T07:50:15.305Z,36.48
2019-04-22T07:58:58.330Z,35.05
2019-04-22T08:05:20.651Z,33.86
2019-04-22T08:07:49.243Z,34.32
2019-04-22T08:10:40.306Z,33.33
2019-04-22T08:13:22.984Z,32.34
2019-04-22T08:16:16.401Z,32.27
2019-04-22T08:19:04.125Z,33.22
2019-04-22T08:21:49.051Z,32.90
2019-04-22T08:24:22.658Z,32.49
2019-04-22T08:26:53.235Z,31.20
2019-04-22T08:32:58.898Z,32.56
2019-04-22T08:35:52.430Z,32.10
2019-04-22T08:38:24.131Z,31.35
2019-04-22T08:41:06.853Z,31.00
2019-04-22T08:44:02.569Z,30.80
2019-04-22T08:49:57.175Z,30.95
2019-04-22T08:54:51.318Z,29.69
2019-04-22T09:00:51.847Z,30.04
2019-04-22T09:03:34.238Z,30.01
2019-04-22T09:15:16.577Z,31.93
2019-04-22T09:18:12.816Z,31.74
2019-04-22T09:21:04.722Z,30.14
2019-04-22T09:26:22.873Z,28.02
2019-04-22T09:28:59.906Z,28.46
2019-04-22T09:31:53.639Z,28.62
2019-04-22T09:34:23.535Z,26.86
2019-04-22T09:37:01.536Z,26.24
2019-04-22T09:39:55.354Z,25.79
2019-04-22T09:42:39.154Z,25.47
2019-04-22T09:48:34.740Z,25.12
2019-04-22T09:51:05.886Z,26.79
2019-04-22T09:53:54.176Z,27.42
2019-04-22T10:02:55.376Z,29.82
2019-04-22T10:05:35.736Z,31.20
2019-04-22T10:08:03.142Z,30.06
2019-04-22T10:10:56.587Z,29.51
2019-04-22T10:13:37.376Z,28.85
2019-04-22T10:16:08.919Z,28.52
2019-04-22T10:18:38.944Z,28.34
2019-04-22T10:21:19.063Z,27.76
2019-04-22T10:24:03.446Z,28.80
2019-04-22T10:29:10.743Z,27.51
2019-04-22T10:35:19.094Z,26.34
2019-04-22T10:38:10.342Z,27.86
2019-04-22T10:40:58.583Z,27.23
2019-04-22T10:43:25.326Z,27.12
2019-04-22T10:45:59.792Z,26.79
2019-04-22T10:52:02.688Z,25.15
2019-04-22T10:54:43.261Z,25.83
2019-04-22T10:57:22.912Z,25.48
2019-04-22T11:02:48.184Z,25.64
2019-04-22T11:06:01.261Z,24.61
2019-04-22T11:08:52.813Z,23.61
2019-04-22T11:13:56.114Z,24.45
2019-04-22T11:16:43.512Z,23.99
2019-04-22T11:22:30.032Z,24.61
2019-04-22T11:25:26.137Z,24.25
2019-04-22T11:27:53.580Z,24.86
2019-04-22T11:31:06.202Z,25.67
2019-04-22T11:33:45.347Z,25.72
2019-04-22T11:36:11.390Z,27.04
2019-04-22T11:41:49.968Z,27.05
2019-04-22T11:44:37.158Z,26.92
2019-04-22T11:47:17.197Z,26.92
2019-04-22T11:49:43.889Z,26.57
2019-04-22T11:52:22.557Z,25.49
2019-04-22T11:55:08.961Z,25.65
2019-04-22T11:57:47.946Z,25.07
2019-04-22T12:00:36.963Z,25.37
2019-04-22T12:06:45.850Z,24.75
2019-04-22T12:09:53.359Z,24.98
2019-04-22T12:12:34.538Z,24.80
2019-04-22T12:15:15.091Z,25.60
2019-04-22T12:17:55.276Z,25.02
2019-04-22T12:20:35.057Z,24.38
2019-04-22T12:26:48.296Z,24.03
2019-04-22T12:32:25.507Z,24.12
2019-04-22T12:38:33.432Z,22.57
2019-04-22T12:44:24.458Z,24.44
2019-04-22T12:56:25.830Z,24.12
2019-04-22T12:58:59.516Z,24.89
2019-04-22T13:01:39.242Z,25.38
2019-04-22T13:10:05.968Z,25.03
2019-04-22T13:16:10.941Z,24.10
2019-04-22T13:18:43.409Z,25.68
2019-04-22T13:21:10.927Z,24.61
2019-04-22T13:23:57.148Z,24.44
2019-04-22T13:26:38.105Z,25.84
2019-04-22T13:29:19.258Z,25.22
2019-04-22T13:34:46.510Z,26.38
2019-04-22T13:37:23.235Z,26.22
2019-04-22T13:39:49.364Z,25.84
2019-04-22T13:42:19.385Z,27.95
2019-04-22T13:44:49.808Z,26.73
2019-04-22T13:47:30.486Z,26.44
2019-04-22T13:56:10.593Z,31.17
2019-04-22T13:58:24.359Z,33.64
2019-04-22T14:01:36.572Z,33.19
2019-04-22T14:07:16.930Z,32.80
2019-04-22T14:09:56.424Z,34.02
2019-04-22T14:13:00.203Z,34.05
2019-04-22T14:15:27.772Z,34.73
2019-04-22T14:18:21.277Z,34.92
2019-04-22T14:21:01.150Z,35.12
2019-04-22T14:23:28.393Z,34.28
2019-04-22T14:26:01.532Z,34.42
2019-04-22T14:28:29.258Z,35.55
2019-04-22T14:31:02.372Z,34.67
2019-04-22T14:33:54.753Z,34.89
2019-04-22T14:36:30.155Z,35.28
2019-04-22T14:39:30.356Z,34.78
2019-04-22T14:42:28.372Z,35.89
2019-04-22T14:48:01.140Z,35.79
2019-04-22T14:50:37.590Z,36.23
2019-04-22T14:56:06.545Z,37.37
2019-04-22T14:58:40.561Z,36.42
2019-04-22T15:04:11.441Z,36.70
2019-04-22T15:06:59.001Z,37.62
2019-04-22T15:09:32.503Z,37.33
2019-04-22T15:12:30.006Z,37.42
2019-04-22T15:18:33.716Z,37.45
2019-04-22T15:21:14.753Z,38.03
2019-04-22T15:27:14.162Z,38.30
2019-04-22T15:33:49.839Z,39.15
2019-04-22T15:36:28.309Z,39.19
2019-04-22T15:42:09.526Z,39.56
2019-04-22T15:44:37.669Z,40.19
2019-04-22T15:47:13.066Z,40.36
2019-04-22T15:53:31.558Z,40.82
2019-04-22T16:01:28.870Z,41.08
2019-04-22T16:03:58.896Z,41.34
2019-04-22T16:09:13.249Z,43.64
2019-04-22T16:12:16.329Z,43.31
2019-04-22T16:14:47.365Z,43.12
2019-04-22T16:17:16.749Z,43.31
2019-04-22T16:20:23.320Z,43.26
2019-04-22T16:28:57.624Z,44.49
2019-04-22T16:31:29.373Z,44.47
2019-04-22T16:34:03.005Z,44.31
2019-04-22T16:36:29.329Z,44.45
2019-04-22T16:38:57.008Z,44.62
2019-04-22T16:41:24.433Z,44.49
2019-04-22T16:43:50.817Z,45.43
2019-04-22T16:46:16.916Z,45.80
2019-04-22T16:48:43.390Z,45.59
2019-04-22T16:51:09.941Z,46.65
2019-04-22T16:53:37.079Z,47.20
2019-04-22T16:56:04.803Z,47.93
2019-04-22T16:58:30.901Z,48.73
2019-04-22T17:00:58.602Z,48.92
2019-04-22T17:03:26.913Z,49.47
2019-04-22T17:06:11.793Z,49.86
2019-04-22T17:08:39.013Z,49.63
2019-04-22T17:11:05.335Z,49.47
2019-04-22T17:13:33.980Z,50.68
2019-04-22T17:16:01.947Z,51.41
2019-04-22T17:18:27.393Z,51.27
2019-04-22T17:20:54.890Z,51.37
2019-04-22T17:23:21.039Z,51.47
2019-04-22T17:25:48.314Z,52.65
2019-04-22T17:28:15.391Z,52.94
2019-04-22T17:30:41.581Z,52.82
2019-04-22T17:33:08.431Z,53.32
2019-04-22T17:35:36.021Z,53.19
2019-04-22T17:38:14.251Z,53.37
2019-04-22T17:40:49.109Z,55.32
2019-04-22T17:43:30.049Z,56.08
2019-04-22T17:45:58.428Z,56.05
2019-04-22T17:48:35.718Z,56.31
2019-04-22T17:51:16.137Z,56.53
2019-04-22T17:57:19.290Z,55.84
2019-04-22T17:59:55.275Z,55.21
2019-04-22T18:05:04.221Z,57.70
2019-04-22T18:08:05.528Z,56.81
2019-04-22T18:11:18.178Z,57.16
2019-04-22T18:14:16.797Z,57.66
2019-04-22T18:16:47.625Z,58.25
2019-04-22T18:19:16.717Z,57.88
2019-04-22T18:21:46.199Z,57.72
2019-04-22T18:27:30.492Z,59.08
2019-04-22T18:30:16.637Z,59.20
2019-04-22T18:33:24.341Z,59.29
2019-04-22T18:39:20.843Z,59.61
2019-04-22T18:41:48.216Z,59.81
2019-04-22T18:44:22.864Z,60.52
2019-04-22T18:46:54.986Z,60.95
2019-04-22T18:49:43.447Z,60.81
2019-04-22T18:55:33.838Z,61.37
2019-04-22T18:58:24.897Z,62.21
2019-04-22T19:03:55.203Z,61.95
2019-04-22T19:09:37.649Z,63.50
2019-04-22T19:12:11.765Z,62.76
2019-04-22T19:15:08.243Z,63.13
2019-04-22T19:18:00.011Z,62.81
2019-04-22T19:20:31.484Z,63.84
2019-04-22T19:22:57.132Z,64.19
2019-04-22T19:25:37.057Z,64.14
2019-04-22T19:28:17.914Z,63.93
2019-04-22T19:31:02.810Z,64.43
2019-04-22T19:33:40.606Z,64.41
2019-04-22T19:36:20.519Z,64.62
2019-04-22T19:38:59.117Z,65.83
2019-04-22T19:41:59.180Z,65.31
2019-04-22T19:44:43.775Z,65.09
2019-04-22T19:47:24.026Z,65.13
2019-04-22T19:50:11.752Z,64.95
2019-04-22T19:52:44.581Z,64.67
2019-04-22T19:55:59.938Z,64.42
2019-04-22T20:07:51.008Z,65.50
2019-04-22T20:10:51.166Z,65.08
2019-04-22T20:19:45.614Z,66.38
2019-04-22T20:22:32.706Z,66.39
2019-04-22T20:25:12.356Z,65.99
2019-04-22T20:31:33.948Z,65.20
2019-04-22T20:37:28.325Z,65.38
2019-04-22T20:43:43.222Z,64.39
2019-04-22T20:46:31.625Z,64.80
2019-04-22T20:49:00.168Z,64.88
2019-04-22T20:52:11.461Z,64.59
2019-04-22T20:54:35.907Z,64.16
2019-04-22T20:57:01.039Z,64.17
2019-04-22T21:02:36.217Z,63.97
2019-04-22T21:05:34.532Z,63.77
2019-04-22T21:08:33.443Z,63.81
2019-04-22T21:10:49.368Z,63.55
2019-04-22T21:13:50.450Z,63.16
2019-04-22T21:16:40.053Z,63.19
2019-04-22T21:19:04.431Z,62.30
2019-04-22T21:22:03.576Z,62.36
2019-04-22T21:24:49.214Z,62.27
2019-04-22T21:27:35.373Z,62.25
2019-04-22T21:30:14.438Z,61.67
2019-04-22T21:32:53.540Z,61.92
2019-04-22T21:35:54.945Z,61.71
2019-04-22T21:38:25.032Z,61.23
2019-04-22T21:40:45.600Z,61.20
2019-04-22T21:43:42.180Z,60.92
2019-04-22T21:46:32.393Z,60.66
2019-04-22T21:49:10.849Z,60.61
2019-04-22T21:51:48.100Z,60.62
2019-04-22T21:54:15.578Z,60.24
2019-04-22T21:57:53.827Z,60.29
2019-04-22T22:00:17.303Z,60.81
2019-04-22T22:03:02.212Z,60.48
2019-04-22T22:05:30.162Z,60.64
2019-04-22T22:08:30.176Z,60.46
2019-04-22T22:10:51.161Z,60.88
2019-04-22T22:14:07.690Z,60.88
2019-04-22T22:16:29.420Z,60.99
2019-04-22T22:19:25.499Z,60.81
2019-04-22T22:22:25.418Z,60.43
2019-04-22T22:24:39.963Z,60.87
2019-04-22T22:27:09.346Z,61.25
2019-04-22T22:29:57.013Z,60.93
2019-04-22T22:32:40.502Z,61.36
2019-04-22T22:35:26.685Z,61.34
2019-04-22T22:37:51.708Z,61.99
2019-04-22T22:40:30.605Z,62.16
2019-04-22T22:43:11.689Z,62.50
2019-04-22T22:46:08.989Z,62.32
2019-04-22T22:49:05.022Z,62.13
2019-04-22T22:51:40.350Z,62.70
2019-04-22T22:54:33.102Z,62.63
2019-04-22T22:57:25.162Z,62.31
2019-04-22T22:59:57.803Z,62.78
2019-04-22T23:02:36.816Z,63.00
2019-04-22T23:05:05.562Z,63.07
2019-04-22T23:07:40.957Z,62.78
2019-04-22T23:10:33.944Z,62.80
2019-04-22T23:13:14.687Z,62.87
2019-04-22T23:15:37.138Z,62.96
2019-04-22T23:17:54.007Z,62.72
2019-04-22T23:20:48.332Z,62.95
2019-04-22T23:23:51.344Z,63.63
2019-04-22T23:26:35.760Z,63.75
2019-04-22T23:29:16.085Z,63.53
2019-04-22T23:32:00.583Z,64.27
2019-04-22T23:37:23.225Z,63.73
2019-04-22T23:40:32.568Z,64.19
2019-04-22T23:46:29.047Z,64.70
2019-04-22T23:52:14.690Z,65.50
2019-04-22T23:54:58.523Z,65.19
2019-04-22T23:57:26.312Z,65.15
